Time;durP1;ratioP1;P1;durP2;ratioP2;P2;SDS_P1;SDS_P2;PMS_P1;PMS_P2;Temp;Humidity;BMP_temperature;BMP_pressure;BME280_temperature;BME280_humidity;BME280_pressure;Samples;Min_cycle;Max_cycle;Signal;HPM_P1;HPM_P2
2021/12/31 00:00:38;;;;;;;11.93;4.70;;;;;13.90;101159.00;;;;5007880;28;20369;-73
2021/12/31 00:03:25;;;;;;;9.37;4.73;;;;;13.80;101163.00;;;;4989415;28;20302;-73
2021/12/31 00:06:11;;;;;;;9.77;4.43;;;;;13.70;101148.00;;;;4978540;28;20231;-74
2021/12/31 00:08:57;;;;;;;11.93;4.97;;;;;13.80;101145.00;;;;4990911;28;20238;-74
2021/12/31 00:11:45;;;;;;;7.77;5.00;;;;;13.80;101163.00;;;;4985413;28;20302;-74
2021/12/31 00:14:31;;;;;;;11.13;4.70;;;;;14.00;101162.00;;;;4995400;28;20421;-74
2021/12/31 00:17:18;;;;;;;10.40;4.60;;;;;13.90;101159.00;;;;4989953;28;20238;-74
2021/12/31 00:20:09;;;;;;;11.20;4.50;;;;;13.90;101156.00;;;;4996503;28;20238;-73
2021/12/31 00:23:05;;;;;;;8.20;4.17;;;;;13.90;101168.00;;;;4985175;28;20621;-74
2021/12/31 00:25:51;;;;;;;8.57;4.30;;;;;13.80;101164.00;;;;5001222;28;20436;-75
2021/12/31 00:28:39;;;;;;;8.87;4.53;;;;;13.80;101174.00;;;;4995447;28;20356;-75
2021/12/31 00:31:25;;;;;;;7.47;4.60;;;;;13.90;101167.00;;;;4986024;28;20234;-75
2021/12/31 00:34:13;;;;;;;10.30;3.90;;;;;13.80;101166.00;;;;4986463;28;20242;-74
2021/12/31 00:36:59;;;;;;;8.43;4.23;;;;;13.80;101160.00;;;;4990693;28;20230;-74
2021/12/31 00:39:45;;;;;;;8.13;3.83;;;;;13.90;101161.00;;;;5008144;28;20752;-74
2021/12/31 00:42:32;;;;;;;11.10;4.20;;;;;13.90;101161.00;;;;5002514;28;20634;-74
2021/12/31 00:45:21;;;;;;;9.63;4.10;;;;;13.90;101160.00;;;;4994512;28;20818;-74
2021/12/31 00:48:09;;;;;;;6.83;3.60;;;;;14.00;101163.00;;;;4976735;28;20332;-76
2021/12/31 00:50:56;;;;;;;8.13;3.27;;;;;14.00;101165.00;;;;4997674;28;20729;-74
2021/12/31 00:53:42;;;;;;;8.60;3.30;;;;;13.80;101164.00;;;;5017136;28;20231;-73
2021/12/31 00:56:29;;;;;;;7.43;3.40;;;;;13.90;101158.00;;;;5013957;28;20242;-73
2021/12/31 00:59:15;;;;;;;11.17;3.90;;;;;14.00;101166.00;;;;5012400;28;20382;-74
2021/12/31 01:02:04;;;;;;;15.37;3.63;;;;;14.00;101169.00;;;;4986079;28;20358;-74
2021/12/31 01:04:51;;;;;;;6.03;3.10;;;;;13.90;101169.00;;;;4984775;28;20238;-75
2021/12/31 01:07:38;;;;;;;5.37;3.13;;;;;14.00;101172.00;;;;5017818;28;20775;-74
2021/12/31 01:10:27;;;;;;;8.87;3.07;;;;;14.00;101157.00;;;;4989911;28;20301;-74
2021/12/31 01:13:23;;;;;;;9.27;3.13;;;;;14.00;101175.00;;;;5000667;28;20236;-75
2021/12/31 01:16:10;;;;;;;6.57;2.83;;;;;14.00;101163.00;;;;5000247;28;20234;-75
2021/12/31 01:22:01;;;;;;;6.53;3.40;;;;;14.10;101165.00;;;;4982382;28;20283;-75
2021/12/31 01:24:48;;;;;;;4.27;2.90;;;;;14.00;101171.00;;;;4980478;28;20238;-74
2021/12/31 01:27:35;;;;;;;7.27;2.93;;;;;14.00;101166.00;;;;4978114;28;20286;-74
2021/12/31 01:30:21;;;;;;;5.87;2.90;;;;;14.00;101171.00;;;;4982828;28;20388;-74
2021/12/31 01:33:08;;;;;;;11.77;2.77;;;;;14.00;101163.00;;;;4972141;28;20746;-73
2021/12/31 01:35:56;;;;;;;6.17;2.53;;;;;14.10;101160.00;;;;4972805;28;20313;-73
2021/12/31 01:38:44;;;;;;;7.47;3.00;;;;;14.00;101165.00;;;;4993748;28;20241;-73
2021/12/31 01:41:31;;;;;;;6.10;2.80;;;;;14.10;101170.00;;;;4993005;28;20231;-75
2021/12/31 01:44:20;;;;;;;7.57;3.00;;;;;14.00;101172.00;;;;4987476;28;20254;-73
2021/12/31 01:47:11;;;;;;;5.17;2.20;;;;;14.00;101175.00;;;;4990365;28;20354;-73
2021/12/31 01:50:01;;;;;;;6.90;2.60;;;;;14.10;101164.00;;;;5001253;28;21096;-73
2021/12/31 01:52:49;;;;;;;6.53;2.83;;;;;14.10;101168.00;;;;4997503;28;20934;-72
2021/12/31 01:55:35;;;;;;;7.30;2.70;;;;;14.10;101170.00;;;;5013232;28;20235;-73
2021/12/31 01:58:24;;;;;;;5.00;2.53;;;;;14.20;101157.00;;;;5018169;28;20234;-75
2021/12/31 02:01:11;;;;;;;4.73;2.90;;;;;14.10;101168.00;;;;5013551;28;20753;-73
2021/12/31 02:03:59;;;;;;;4.70;2.50;;;;;14.00;101167.00;;;;5005396;28;20236;-74
2021/12/31 02:06:45;;;;;;;4.07;2.63;;;;;14.20;101169.00;;;;4982306;28;20303;-74
2021/12/31 02:09:35;;;;;;;6.67;2.60;;;;;14.00;101183.00;;;;5005291;28;20234;-74
2021/12/31 02:12:22;;;;;;;4.93;2.53;;;;;14.10;101157.00;;;;5012323;28;20233;-73
2021/12/31 02:15:09;;;;;;;4.33;2.43;;;;;14.20;101187.00;;;;5008812;28;20301;-74
2021/12/31 02:17:56;;;;;;;4.03;2.63;;;;;14.10;101185.00;;;;5004678;28;20320;-74
2021/12/31 02:20:46;;;;;;;6.13;2.47;;;;;14.10;101185.00;;;;5006367;28;20226;-74
2021/12/31 02:23:42;;;;;;;5.10;2.10;;;;;14.30;101193.00;;;;5005533;28;20241;-74
2021/12/31 02:26:28;;;;;;;5.83;2.50;;;;;14.20;101185.00;;;;5021569;28;20237;-74
2021/12/31 02:29:15;;;;;;;4.37;2.30;;;;;14.20;101187.00;;;;5006674;28;20235;-74
2021/12/31 02:32:01;;;;;;;4.57;2.40;;;;;14.10;101193.00;;;;4984400;28;20971;-75
2021/12/31 02:34:48;;;;;;;2.70;1.90;;;;;14.10;101188.00;;;;4998698;28;20234;-75
2021/12/31 02:37:36;;;;;;;2.43;2.07;;;;;14.20;101201.00;;;;5006236;28;20725;-74
2021/12/31 02:40:24;;;;;;;3.83;2.20;;;;;14.10;101185.00;;;;5005916;28;20234;-74
2021/12/31 02:43:10;;;;;;;6.43;2.23;;;;;14.10;101187.00;;;;5016394;28;20238;-75
2021/12/31 02:45:56;;;;;;;4.27;2.20;;;;;14.10;101188.00;;;;5000098;28;20255;-74
2021/12/31 02:48:43;;;;;;;3.97;2.40;;;;;14.10;101181.00;;;;5008790;28;20226;-71
2021/12/31 02:51:29;;;;;;;3.97;2.30;;;;;14.20;101180.00;;;;5020243;28;20352;-75
2021/12/31 02:54:19;;;;;;;5.93;2.30;;;;;14.10;101182.00;;;;5006078;28;20225;-74
2021/12/31 02:57:06;;;;;;;3.07;2.10;;;;;14.00;101184.00;;;;5001041;28;20229;-75
2021/12/31 02:59:52;;;;;;;6.73;2.33;;;;;14.00;101183.00;;;;4999550;28;20826;-74
2021/12/31 03:02:39;;;;;;;4.60;2.23;;;;;14.10;101178.00;;;;4985854;28;20282;-74
2021/12/31 03:05:27;;;;;;;3.47;2.23;;;;;14.00;101180.00;;;;4986553;28;20235;-74
2021/12/31 03:08:15;;;;;;;5.13;2.20;;;;;14.00;101191.00;;;;5013354;28;20229;-72
2021/12/31 03:11:05;;;;;;;4.50;2.20;;;;;13.90;101181.00;;;;5000366;28;20894;-74
2021/12/31 03:13:52;;;;;;;5.57;2.40;;;;;14.00;101184.00;;;;4980758;28;20398;-73
2021/12/31 03:16:38;;;;;;;4.00;2.13;;;;;14.00;101190.00;;;;5013110;28;20236;-74
2021/12/31 03:19:25;;;;;;;3.50;2.20;;;;;14.00;101181.00;;;;5009738;28;20311;-73
2021/12/31 03:22:12;;;;;;;4.80;2.50;;;;;14.00;101188.00;;;;5000625;28;20242;-74
2021/12/31 03:24:58;;;;;;;5.10;2.23;;;;;14.10;101194.00;;;;4980884;28;20366;-75
2021/12/31 03:27:46;;;;;;;6.33;1.97;;;;;13.90;101183.00;;;;4994198;28;20576;-74
2021/12/31 03:30:32;;;;;;;2.27;1.80;;;;;14.00;101187.00;;;;5024426;28;20245;-73
2021/12/31 03:33:19;;;;;;;4.23;2.10;;;;;13.80;101181.00;;;;4991538;28;20609;-74
2021/12/31 03:36:06;;;;;;;4.23;2.40;;;;;14.10;101191.00;;;;4998883;28;20238;-74
2021/12/31 03:38:52;;;;;;;4.70;2.50;;;;;14.00;101187.00;;;;4983370;28;20283;-74
2021/12/31 03:41:39;;;;;;;3.87;2.23;;;;;14.00;101182.00;;;;4996297;28;20709;-74
2021/12/31 03:44:26;;;;;;;3.67;2.20;;;;;13.90;101193.00;;;;4998553;28;20243;-74
2021/12/31 03:47:13;;;;;;;3.70;1.97;;;;;13.90;101183.00;;;;4999257;28;20226;-73
2021/12/31 03:49:59;;;;;;;3.53;2.37;;;;;14.10;101188.00;;;;4998774;28;20239;-74
2021/12/31 03:52:45;;;;;;;5.60;2.20;;;;;14.00;101187.00;;;;5002933;28;20235;-74
2021/12/31 03:55:32;;;;;;;4.47;2.33;;;;;14.10;101172.00;;;;5006909;28;20246;-76
2021/12/31 03:58:18;;;;;;;4.47;2.30;;;;;14.20;101184.00;;;;5018358;28;20372;-74
2021/12/31 04:01:06;;;;;;;4.73;2.73;;;;;14.10;101159.00;;;;4999432;28;20297;-75
2021/12/31 04:03:53;;;;;;;3.73;2.60;;;;;14.20;101175.00;;;;4989821;28;20234;-74
2021/12/31 04:06:39;;;;;;;3.17;2.30;;;;;14.00;101185.00;;;;5021659;28;20617;-74
2021/12/31 04:09:25;;;;;;;5.70;2.10;;;;;14.10;101157.00;;;;4991409;28;20339;-74
2021/12/31 04:12:11;;;;;;;3.47;2.30;;;;;14.10;101166.00;;;;4994871;28;20234;-73
2021/12/31 04:14:57;;;;;;;5.10;2.50;;;;;14.00;101174.00;;;;5002636;28;20241;-74
2021/12/31 04:17:45;;;;;;;5.77;2.40;;;;;14.00;101178.00;;;;4989491;28;20246;-74
2021/12/31 04:20:37;;;;;;;4.43;2.40;;;;;14.10;101169.00;;;;4994889;28;20252;-75
2021/12/31 04:23:28;;;;;;;4.17;2.47;;;;;14.00;101158.00;;;;5016607;28;20321;-74
2021/12/31 04:26:15;;;;;;;3.50;2.33;;;;;13.90;101168.00;;;;5020304;28;20242;-74
2021/12/31 04:29:02;;;;;;;4.27;2.60;;;;;14.10;101175.00;;;;5017037;28;20231;-74
2021/12/31 04:31:48;;;;;;;4.73;2.60;;;;;14.00;101164.00;;;;5004456;28;20229;-74
2021/12/31 04:34:36;;;;;;;4.60;2.43;;;;;14.00;101153.00;;;;5006121;28;20246;-72
2021/12/31 04:37:22;;;;;;;4.70;2.70;;;;;13.90;101156.00;;;;5011133;28;20370;-74
2021/12/31 04:40:09;;;;;;;7.07;2.53;;;;;13.80;101153.00;;;;5003769;28;20264;-75
2021/12/31 04:42:55;;;;;;;4.20;2.47;;;;;13.90;101168.00;;;;4982483;28;20323;-74
2021/12/31 04:45:43;;;;;;;4.87;2.93;;;;;13.90;101163.00;;;;4994332;28;20342;-74
2021/12/31 04:48:29;;;;;;;5.57;2.50;;;;;14.00;101167.00;;;;5024152;28;20365;-74
2021/12/31 04:51:17;;;;;;;6.93;2.97;;;;;14.00;101170.00;;;;5008036;28;20238;-74
2021/12/31 04:54:03;;;;;;;5.07;2.63;;;;;13.90;101178.00;;;;4991734;28;20313;-73
2021/12/31 04:56:52;;;;;;;8.40;3.23;;;;;14.00;101164.00;;;;4981754;28;20305;-74
2021/12/31 04:59:38;;;;;;;5.60;2.90;;;;;13.90;101172.00;;;;4994662;28;20290;-74
2021/12/31 05:02:25;;;;;;;6.97;3.10;;;;;14.00;101162.00;;;;4988211;28;20239;-74
2021/12/31 05:05:12;;;;;;;5.73;2.63;;;;;13.90;101133.00;;;;4988316;28;20610;-73
2021/12/31 05:07:59;;;;;;;8.23;2.77;;;;;14.00;101155.00;;;;5000894;28;20233;-74
2021/12/31 05:10:45;;;;;;;5.87;2.80;;;;;14.00;101157.00;;;;4999924;28;20695;-73
2021/12/31 05:13:32;;;;;;;3.97;2.60;;;;;13.90;101146.00;;;;4997538;28;20862;-74
2021/12/31 05:16:18;;;;;;;8.90;3.23;;;;;14.00;101139.00;;;;5017056;28;20237;-74
2021/12/31 05:19:05;;;;;;;5.97;2.93;;;;;14.00;101141.00;;;;5007906;28;20240;-73
2021/12/31 05:21:52;;;;;;;5.57;2.77;;;;;14.00;101143.00;;;;5006633;28;20245;-74
2021/12/31 05:24:41;;;;;;;6.47;2.70;;;;;14.00;101155.00;;;;5019559;28;20759;-74
2021/12/31 05:27:28;;;;;;;7.27;3.10;;;;;13.90;101145.00;;;;5012099;28;20238;-74
2021/12/31 05:30:14;;;;;;;8.20;3.00;;;;;13.90;101149.00;;;;5003692;28;20223;-72
2021/12/31 05:33:00;;;;;;;6.83;3.10;;;;;14.00;101144.00;;;;5002132;28;20234;-73
2021/12/31 05:35:47;;;;;;;5.37;2.60;;;;;13.80;101144.00;;;;4993026;28;20273;-74
2021/12/31 05:38:33;;;;;;;6.63;2.80;;;;;13.80;101149.00;;;;5006164;28;20235;-73
2021/12/31 05:41:21;;;;;;;5.37;2.73;;;;;13.80;101137.00;;;;4981141;28;20799;-74
2021/12/31 05:44:10;;;;;;;50.33;20.20;;;;;13.90;101141.00;;;;5005950;28;20237;-73
2021/12/31 05:46:57;;;;;;;9.17;3.90;;;;;14.00;101145.00;;;;4993147;28;20235;-71
2021/12/31 05:49:48;;;;;;;9.73;2.87;;;;;14.00;101138.00;;;;4987348;28;20274;-71
2021/12/31 05:52:34;;;;;;;7.83;3.00;;;;;14.00;101143.00;;;;5000659;28;20408;-72
2021/12/31 05:55:20;;;;;;;8.67;2.70;;;;;14.00;101140.00;;;;4986715;28;20243;-71
2021/12/31 05:58:08;;;;;;;7.33;2.67;;;;;14.20;101131.00;;;;4983199;28;20335;-72
2021/12/31 06:00:54;;;;;;;4.40;2.50;;;;;14.10;101124.00;;;;4979757;28;20797;-71
2021/12/31 06:03:41;;;;;;;4.50;2.50;;;;;14.20;101118.00;;;;5012891;28;20311;-72
2021/12/31 06:06:27;;;;;;;6.77;2.97;;;;;13.90;101118.00;;;;5012486;28;20234;-74
2021/12/31 06:09:13;;;;;;;6.17;2.70;;;;;14.00;101120.00;;;;4983640;28;20751;-74
2021/12/31 06:12:00;;;;;;;5.50;3.13;;;;;13.90;101124.00;;;;4990038;28;20994;-74
2021/12/31 06:14:48;;;;;;;6.10;2.70;;;;;13.90;101119.00;;;;4972072;28;20285;-76
2021/12/31 06:17:35;;;;;;;4.03;2.60;;;;;13.90;101123.00;;;;5005495;28;20871;-74
2021/12/31 06:20:21;;;;;;;31.40;14.63;;;;;14.00;101125.00;;;;5006703;28;20611;-72
2021/12/31 06:23:08;;;;;;;7.67;2.83;;;;;14.00;101123.00;;;;5006308;28;20238;-74
2021/12/31 06:25:54;;;;;;;8.07;2.83;;;;;13.90;101131.00;;;;4998837;28;20725;-72
2021/12/31 06:28:40;;;;;;;6.47;2.90;;;;;14.00;101122.00;;;;4992814;28;20704;-73
2021/12/31 06:31:28;;;;;;;5.23;2.73;;;;;13.80;101125.00;;;;4997324;28;20231;-73
2021/12/31 06:34:15;;;;;;;4.13;2.50;;;;;13.90;101108.00;;;;5004995;28;20227;-73
2021/12/31 06:37:01;;;;;;;5.03;2.40;;;;;13.90;101110.00;;;;4982072;28;20251;-73
2021/12/31 06:39:47;;;;;;;6.43;2.60;;;;;13.90;101113.00;;;;4984473;28;20230;-74
2021/12/31 06:42:35;;;;;;;6.73;3.10;;;;;14.00;101119.00;;;;5001479;28;20223;-75
2021/12/31 06:45:22;;;;;;;9.57;2.77;;;;;13.90;101116.00;;;;4990709;28;20268;-73
2021/12/31 06:48:09;;;;;;;6.60;2.63;;;;;13.90;101121.00;;;;5006388;28;20240;-73
2021/12/31 06:50:56;;;;;;;4.63;2.70;;;;;13.90;101104.00;;;;4976643;28;20252;-73
2021/12/31 06:53:42;;;;;;;3.13;2.53;;;;;14.00;101107.00;;;;4995053;28;20316;-75
2021/12/31 06:56:29;;;;;;;4.53;2.60;;;;;14.00;101118.00;;;;4995451;28;20237;-71
2021/12/31 06:59:15;;;;;;;7.10;2.63;;;;;14.00;101099.00;;;;5001966;28;20242;-74
2021/12/31 07:02:02;;;;;;;5.50;2.20;;;;;14.00;101113.00;;;;4984203;28;20242;-75
2021/12/31 07:04:50;;;;;;;5.97;2.97;;;;;13.90;101104.00;;;;4984375;28;20736;-74
2021/12/31 07:07:37;;;;;;;3.97;2.40;;;;;14.00;101110.00;;;;5008772;28;20234;-74
2021/12/31 07:10:23;;;;;;;12.53;6.67;;;;;13.80;101103.00;;;;4986031;28;20288;-72
2021/12/31 07:13:11;;;;;;;7.00;3.90;;;;;14.00;101105.00;;;;5010633;28;20233;-74
2021/12/31 07:15:57;;;;;;;3.13;2.60;;;;;14.00;101109.00;;;;5004773;28;20239;-75
2021/12/31 07:18:43;;;;;;;3.83;2.60;;;;;13.90;101120.00;;;;4984395;28;20326;-74
2021/12/31 07:21:31;;;;;;;5.80;2.40;;;;;14.10;101119.00;;;;5013959;28;20324;-73
2021/12/31 07:24:18;;;;;;;6.27;2.47;;;;;14.00;101128.00;;;;5005629;28;20608;-73
2021/12/31 07:27:04;;;;;;;6.93;2.87;;;;;14.00;101121.00;;;;5001681;28;20231;-75
2021/12/31 07:29:54;;;;;;;6.50;2.40;;;;;14.10;101115.00;;;;4998428;28;20238;-74
2021/12/31 07:32:41;;;;;;;7.30;2.43;;;;;14.00;101113.00;;;;5003422;28;20307;-74
2021/12/31 07:35:27;;;;;;;21.03;12.07;;;;;14.00;101111.00;;;;5008495;28;20910;-72
2021/12/31 07:38:22;;;;;;;8.90;3.87;;;;;14.20;101104.00;;;;4997530;28;20231;-74
2021/12/31 07:41:08;;;;;;;5.37;2.80;;;;;14.10;101104.00;;;;4983464;28;20712;-73
2021/12/31 07:43:55;;;;;;;4.07;2.60;;;;;14.10;101093.00;;;;4978537;28;20354;-73
2021/12/31 07:46:43;;;;;;;6.87;2.47;;;;;14.10;101102.00;;;;4996395;28;20306;-74
2021/12/31 07:49:30;;;;;;;3.87;2.53;;;;;14.10;101107.00;;;;5010625;28;20235;-75
2021/12/31 07:52:16;;;;;;;5.07;2.50;;;;;14.00;101107.00;;;;5007928;28;20775;-75
2021/12/31 07:55:05;;;;;;;7.83;3.20;;;;;14.10;101104.00;;;;5009170;28;20236;-72
2021/12/31 07:57:52;;;;;;;3.67;2.70;;;;;14.00;101115.00;;;;4995751;28;20230;-74
2021/12/31 08:00:38;;;;;;;4.07;2.57;;;;;14.10;101125.00;;;;4991903;28;20234;-72
2021/12/31 08:03:24;;;;;;;7.30;2.50;;;;;14.00;101114.00;;;;4993983;28;20282;-73
2021/12/31 08:06:11;;;;;;;5.77;2.70;;;;;14.00;101104.00;;;;4994217;28;20236;-73
2021/12/31 08:08:57;;;;;;;3.80;2.33;;;;;14.00;101116.00;;;;4993971;28;20242;-73
2021/12/31 08:11:44;;;;;;;6.70;2.70;;;;;14.00;101114.00;;;;4979374;28;20233;-71
2021/12/31 08:14:31;;;;;;;3.63;2.60;;;;;13.90;101105.00;;;;4987250;28;20279;-70
2021/12/31 08:17:17;;;;;;;4.90;3.03;;;;;14.00;101109.00;;;;4990152;28;20227;-69
2021/12/31 08:20:04;;;;;;;3.77;2.83;;;;;13.90;101091.00;;;;5001867;28;20237;-69
2021/12/31 08:22:51;;;;;;;4.93;2.63;;;;;14.00;101101.00;;;;4994086;28;20247;-69
2021/12/31 08:25:37;;;;;;;4.80;2.93;;;;;13.90;101118.00;;;;5003185;28;20294;-74
2021/12/31 08:28:25;;;;;;;6.10;2.80;;;;;13.90;101114.00;;;;5000261;28;20242;-76
2021/12/31 08:31:11;;;;;;;7.47;2.70;;;;;13.70;101114.00;;;;5012796;28;20250;-75
2021/12/31 08:33:57;;;;;;;4.67;2.73;;;;;13.80;101114.00;;;;4977510;28;20278;-75
2021/12/31 08:36:44;;;;;;;6.37;3.33;;;;;13.80;101116.00;;;;4984203;28;20322;-75
2021/12/31 08:39:31;;;;;;;3.53;2.50;;;;;13.90;101137.00;;;;5017870;28;20328;-74
2021/12/31 08:42:17;;;;;;;4.53;2.77;;;;;13.90;101132.00;;;;5015035;28;20284;-74
2021/12/31 08:45:05;;;;;;;4.57;2.70;;;;;13.80;101135.00;;;;5010663;28;20367;-74
2021/12/31 08:47:52;;;;;;;4.47;2.60;;;;;13.90;101140.00;;;;5010584;28;20663;-74
2021/12/31 08:50:39;;;;;;;5.97;2.63;;;;;13.80;101134.00;;;;5005352;28;20733;-75
2021/12/31 08:53:25;;;;;;;7.07;2.70;;;;;13.90;101138.00;;;;4986291;28;20234;-73
2021/12/31 08:56:11;;;;;;;13.17;7.30;;;;;13.90;101155.00;;;;4984102;28;20606;-75
2021/12/31 08:58:57;;;;;;;5.50;2.40;;;;;13.80;101131.00;;;;4981348;28;20313;-75
2021/12/31 09:01:45;;;;;;;4.90;2.50;;;;;13.90;101142.00;;;;4990488;28;20810;-74
2021/12/31 09:04:33;;;;;;;3.17;2.40;;;;;13.90;101136.00;;;;4987988;28;20600;-71
2021/12/31 09:07:19;;;;;;;2.80;2.53;;;;;13.90;101128.00;;;;4999732;28;20236;-75
2021/12/31 09:10:08;;;;;;;4.57;2.50;;;;;13.90;101133.00;;;;4991292;28;20234;-73
2021/12/31 09:12:54;;;;;;;2.93;2.23;;;;;13.90;101131.00;;;;4977224;28;20272;-73
2021/12/31 09:15:41;;;;;;;4.80;2.67;;;;;14.00;101135.00;;;;4994204;28;20238;-71
2021/12/31 09:18:28;;;;;;;8.57;4.17;;;;;14.10;101137.00;;;;4984584;28;20232;-72
2021/12/31 09:21:17;;;;;;;2.63;2.10;;;;;14.00;101134.00;;;;4992744;28;20398;-74
2021/12/31 09:24:03;;;;;;;4.83;2.50;;;;;13.90;101144.00;;;;4994042;28;20238;-72
2021/12/31 09:26:50;;;;;;;4.57;2.50;;;;;14.00;101128.00;;;;4993690;28;20239;-74
2021/12/31 09:29:36;;;;;;;3.10;2.37;;;;;13.90;101145.00;;;;4987363;28;20921;-73
2021/12/31 09:32:23;;;;;;;3.77;2.50;;;;;13.90;101150.00;;;;4979350;28;20229;-72
2021/12/31 09:35:11;;;;;;;5.03;2.67;;;;;14.00;101133.00;;;;4984921;28;20235;-73
2021/12/31 09:37:57;;;;;;;3.80;2.70;;;;;14.00;101136.00;;;;4974846;28;20355;-74
2021/12/31 09:40:44;;;;;;;2.97;2.33;;;;;14.10;101145.00;;;;4982215;28;20231;-72
2021/12/31 09:43:30;;;;;;;4.97;2.80;;;;;14.10;101126.00;;;;4981797;28;20764;-74
2021/12/31 09:46:16;;;;;;;3.50;2.40;;;;;14.00;101137.00;;;;4989847;28;20980;-70
2021/12/31 09:49:03;;;;;;;5.53;2.77;;;;;14.00;101139.00;;;;4983829;28;20238;-74
2021/12/31 09:51:52;;;;;;;5.20;2.77;;;;;14.10;101119.00;;;;4996580;28;20230;-73
2021/12/31 09:54:41;;;;;;;3.73;2.33;;;;;14.00;101125.00;;;;4985381;28;20282;-73
2021/12/31 09:57:27;;;;;;;2.93;2.40;;;;;14.00;101141.00;;;;4980919;28;20301;-73
2021/12/31 10:00:14;;;;;;;2.87;2.53;;;;;14.00;101137.00;;;;4986746;28;20231;-74
2021/12/31 10:03:14;;;;;;;16.93;7.13;;;;;14.10;101132.00;;;;4995445;28;20282;-74
2021/12/31 10:06:02;;;;;;;13.20;6.43;;;;;14.20;101137.00;;;;4981461;28;20310;-75
2021/12/31 10:08:50;;;;;;;6.83;2.80;;;;;14.10;101122.00;;;;5001350;28;20238;-74
2021/12/31 10:11:36;;;;;;;5.50;2.57;;;;;14.30;101134.00;;;;5020553;28;20241;-74
2021/12/31 10:14:33;;;;;;;6.17;2.70;;;;;14.20;101140.00;;;;4981429;28;20232;-74
2021/12/31 10:17:35;;;;;;;4.47;2.50;;;;;14.20;101127.00;;;;4999931;28;20234;-72
2021/12/31 10:20:22;;;;;;;3.67;2.37;;;;;14.30;101133.00;;;;5007775;28;20231;-69
2021/12/31 10:23:13;;;;;;;4.03;2.50;;;;;14.50;101144.00;;;;5003575;28;20292;-73
2021/12/31 10:26:10;;;;;;;4.40;2.47;;;;;14.30;101150.00;;;;5000970;28;20278;-73
2021/12/31 10:28:58;;;;;;;3.03;2.50;;;;;14.40;101149.00;;;;5003971;28;20237;-73
2021/12/31 10:31:51;;;;;;;3.80;2.70;;;;;14.40;101138.00;;;;4991815;28;20246;-72
2021/12/31 10:34:38;;;;;;;3.77;3.00;;;;;14.30;101178.00;;;;5005856;28;20628;-74
2021/12/31 10:37:26;;;;;;;50.73;26.07;;;;;14.30;101168.00;;;;4994638;28;20319;-71
2021/12/31 10:40:13;;;;;;;7.27;3.50;;;;;14.40;101160.00;;;;4995075;28;20235;-72
2021/12/31 10:43:16;;;;;;;4.20;2.80;;;;;14.30;101161.00;;;;4999300;28;20367;-74
2021/12/31 10:46:04;;;;;;;3.47;2.70;;;;;14.40;101171.00;;;;5002554;28;20332;-73
2021/12/31 10:48:54;;;;;;;3.57;2.83;;;;;14.40;101164.00;;;;4999568;28;20338;-74
2021/12/31 10:51:42;;;;;;;3.70;2.50;;;;;14.30;101172.00;;;;5003808;28;20234;-74
2021/12/31 10:54:31;;;;;;;6.03;2.50;;;;;14.30;101149.00;;;;4979307;28;20282;-70
2021/12/31 10:57:35;;;;;;;4.47;2.70;;;;;14.30;101152.00;;;;4999636;28;20620;-74
2021/12/31 11:00:24;;;;;;;5.13;2.60;;;;;14.20;101169.00;;;;5018757;28;20300;-74
2021/12/31 11:03:10;;;;;;;3.63;2.13;;;;;14.20;101137.00;;;;5014178;28;20263;-73
2021/12/31 11:05:57;;;;;;;3.70;2.77;;;;;14.20;101163.00;;;;5009144;28;20238;-73
2021/12/31 11:08:46;;;;;;;2.93;2.47;;;;;14.10;101140.00;;;;4981394;28;20236;-73
2021/12/31 11:11:32;;;;;;;2.97;2.60;;;;;14.10;101134.00;;;;4981934;28;20697;-71
2021/12/31 11:14:19;;;;;;;3.37;2.53;;;;;14.20;101112.00;;;;5009040;28;20240;-71
2021/12/31 11:17:07;;;;;;;7.07;2.77;;;;;14.10;101110.00;;;;5008604;28;20253;-77
2021/12/31 11:19:53;;;;;;;5.93;2.80;;;;;14.10;101113.00;;;;4995605;28;20330;-74
2021/12/31 11:22:40;;;;;;;4.00;3.17;;;;;14.10;101106.00;;;;4985366;28;20234;-71
2021/12/31 11:25:51;;;;;;;4.17;2.73;;;;;14.10;101118.00;;;;4994290;28;20233;-72
2021/12/31 11:28:38;;;;;;;11.77;6.93;;;;;14.10;101096.00;;;;5010634;28;20336;-71
2021/12/31 11:31:26;;;;;;;4.33;2.97;;;;;14.00;101110.00;;;;4994485;28;20310;-74
2021/12/31 11:34:16;;;;;;;3.23;2.57;;;;;14.10;101134.00;;;;4993955;28;20281;-73
2021/12/31 11:37:02;;;;;;;3.33;2.50;;;;;14.10;101138.00;;;;4991223;28;20310;-71
2021/12/31 11:39:48;;;;;;;4.50;2.87;;;;;14.10;101128.00;;;;4977920;28;20381;-74
2021/12/31 11:43:14;;;;;;;4.53;2.73;;;;;14.20;101126.00;;;;4986097;28;20246;-75
2021/12/31 11:46:33;;;;;;;5.93;2.83;;;;;14.20;101134.00;;;;4988428;28;20292;-74
2021/12/31 11:49:23;;;;;;;6.00;2.60;;;;;14.40;101106.00;;;;4991108;28;20410;-74
2021/12/31 11:52:13;;;;;;;5.93;2.67;;;;;14.30;101105.00;;;;4997953;28;20226;-74
2021/12/31 11:55:22;;;;;;;4.37;2.70;;;;;14.30;101115.00;;;;4991615;28;20342;-74
2021/12/31 11:58:38;;;;;;;3.97;2.80;;;;;14.40;101086.00;;;;5001442;28;20233;-73
2021/12/31 12:01:39;;;;;;;4.03;2.37;;;;;14.40;101094.00;;;;4994474;28;20742;-71
2021/12/31 12:04:28;;;;;;;3.47;2.70;;;;;14.40;101067.00;;;;5002749;28;20241;-72
2021/12/31 12:07:39;;;;;;;4.10;2.60;;;;;14.50;101087.00;;;;5013956;28;20229;-73
2021/12/31 12:10:38;;;;;;;4.63;2.47;;;;;14.50;101083.00;;;;5001703;28;20924;-72
2021/12/31 12:13:27;;;;;;;4.03;2.47;;;;;14.60;101091.00;;;;5001486;28;20245;-67
2021/12/31 12:16:51;;;;;;;3.80;2.50;;;;;14.70;101099.00;;;;4995186;28;20286;-73
2021/12/31 12:20:10;;;;;;;25.80;12.23;;;;;14.70;101079.00;;;;5004790;28;20721;-72
2021/12/31 12:22:56;;;;;;;5.50;4.00;;;;;14.80;101076.00;;;;4983562;28;20366;-73
2021/12/31 12:25:42;;;;;;;3.90;2.23;;;;;14.80;101093.00;;;;5018038;28;20229;-73
2021/12/31 12:28:29;;;;;;;3.50;2.33;;;;;14.90;101067.00;;;;4982124;28;20243;-74
2021/12/31 12:31:17;;;;;;;2.60;2.40;;;;;14.90;101040.00;;;;5001846;28;20239;-74
2021/12/31 12:34:03;;;;;;;5.70;2.50;;;;;14.70;101029.00;;;;4995530;28;20649;-72
2021/12/31 12:36:54;;;;;;;2.23;2.03;;;;;14.70;101031.00;;;;4999270;28;20844;-74
2021/12/31 12:39:41;;;;;;;3.17;2.30;;;;;14.70;101023.00;;;;5005155;28;20730;-74
2021/12/31 12:42:27;;;;;;;4.50;2.50;;;;;14.50;101046.00;;;;4989897;28;20322;-76
2021/12/31 12:45:13;;;;;;;4.77;2.23;;;;;14.70;101045.00;;;;4997594;28;20233;-74
2021/12/31 12:48:01;;;;;;;3.80;2.40;;;;;14.80;101018.00;;;;4990776;28;20753;-70
2021/12/31 12:50:49;;;;;;;3.23;2.27;;;;;14.70;101029.00;;;;4981658;28;20334;-68
2021/12/31 12:53:38;;;;;;;5.87;2.60;;;;;14.70;101028.00;;;;4985173;28;20244;-70
2021/12/31 12:56:25;;;;;;;3.80;2.30;;;;;14.70;101009.00;;;;4976069;28;20342;-77
2021/12/31 12:59:20;;;;;;;2.50;2.30;;;;;14.70;101015.00;;;;4974835;28;20304;-69
2021/12/31 13:02:06;;;;;;;3.23;2.47;;;;;14.70;101017.00;;;;5000557;28;20234;-72
2021/12/31 13:05:03;;;;;;;6.07;2.50;;;;;14.90;101003.00;;;;4994764;28;20366;-72
2021/12/31 13:07:52;;;;;;;7.53;2.63;;;;;14.70;101042.00;;;;4977833;28;20259;-69
2021/12/31 13:10:40;;;;;;;5.43;2.47;;;;;14.80;101032.00;;;;4982937;28;20244;-70
2021/12/31 13:13:27;;;;;;;3.93;2.67;;;;;14.60;101036.00;;;;4974683;28;20348;-72
2021/12/31 13:16:14;;;;;;;3.63;2.30;;;;;14.70;101029.00;;;;4978673;28;20239;-74
2021/12/31 13:19:05;;;;;;;3.40;2.43;;;;;14.70;101059.00;;;;4983822;28;20235;-73
2021/12/31 13:21:58;;;;;;;4.63;2.53;;;;;14.70;101024.00;;;;4983371;28;20223;-73
2021/12/31 13:24:54;;;;;;;3.30;2.20;;;;;14.60;101059.00;;;;4985894;28;20277;-71
2021/12/31 13:27:44;;;;;;;4.37;2.60;;;;;14.50;101055.00;;;;5003972;28;20311;-72
2021/12/31 13:30:30;;;;;;;11.40;3.67;;;;;14.60;101061.00;;;;5000331;28;20282;-70
2021/12/31 13:33:25;;;;;;;3.63;2.60;;;;;14.50;101049.00;;;;5004286;28;20282;-72
2021/12/31 13:36:18;;;;;;;4.77;2.60;;;;;14.40;101072.00;;;;5001682;28;20243;-71
2021/12/31 13:39:07;;;;;;;4.93;3.07;;;;;14.40;101091.00;;;;4985918;28;20340;-71
2021/12/31 13:41:56;;;;;;;3.60;2.50;;;;;14.30;101063.00;;;;4998962;28;20226;-70
2021/12/31 13:44:50;;;;;;;4.13;2.50;;;;;14.30;101088.00;;;;4994435;28;20238;-72
2021/12/31 13:47:36;;;;;;;3.47;2.47;;;;;14.20;101103.00;;;;4995168;28;20955;-71
2021/12/31 13:50:24;;;;;;;3.70;2.67;;;;;14.30;101094.00;;;;4977841;28;20250;-72
2021/12/31 13:53:23;;;;;;;3.73;2.30;;;;;14.20;101073.00;;;;5012338;28;20241;-73
2021/12/31 13:56:09;;;;;;;4.97;2.40;;;;;14.10;101107.00;;;;4989149;28;20359;-73